createdAt,value
2023-03-28T00:01:47.873Z,48.50
2023-03-28T00:04:17.498Z,49.00
2023-03-28T00:06:45.842Z,48.50
2023-03-28T00:09:13.915Z,48.70
2023-03-28T00:11:41.937Z,48.90
2023-03-28T00:14:10.436Z,48.70
2023-03-28T00:16:40.271Z,48.60
2023-03-28T00:19:11.692Z,48.70
2023-03-28T00:21:46.948Z,48.80
2023-03-28T00:24:17.585Z,48.90
2023-03-28T00:26:54.533Z,48.90
2023-03-28T00:29:25.983Z,49.20
2023-03-28T00:31:54.501Z,49.20
2023-03-28T00:34:22.417Z,49.10
2023-03-28T00:36:54.095Z,49.10
2023-03-28T00:39:22.370Z,49.40
2023-03-28T00:41:50.390Z,49.20
2023-03-28T00:44:48.778Z,49.10
2023-03-28T00:47:30.863Z,49.40
2023-03-28T00:50:02.634Z,49.30
2023-03-28T00:52:37.312Z,49.30
2023-03-28T00:55:09.234Z,49.30
2023-03-28T00:57:38.492Z,49.30
2023-03-28T01:00:09.470Z,49.50
2023-03-28T01:02:40.404Z,49.30
2023-03-28T01:05:14.466Z,49.30
2023-03-28T01:07:48.629Z,49.40
2023-03-28T01:10:22.267Z,49.70
2023-03-28T01:12:52.664Z,49.50
2023-03-28T01:15:21.923Z,49.60
2023-03-28T01:17:55.418Z,49.50
2023-03-28T01:20:43.135Z,49.50
2023-03-28T01:23:42.297Z,49.50
2023-03-28T01:26:45.373Z,49.50
2023-03-28T01:29:48.397Z,49.70
2023-03-28T01:32:48.112Z,49.60
2023-03-28T01:35:56.098Z,49.50
2023-03-28T01:38:29.262Z,49.50
2023-03-28T01:41:04.095Z,49.30
2023-03-28T01:43:49.820Z,49.40
2023-03-28T01:46:23.068Z,49.60
2023-03-28T01:48:58.819Z,49.50
2023-03-28T01:51:39.951Z,49.60
2023-03-28T01:54:14.877Z,49.70
2023-03-28T01:56:52.287Z,49.90
2023-03-28T01:59:37.236Z,50.30
2023-03-28T02:02:30.381Z,50.20
2023-03-28T02:05:15.534Z,50.30
2023-03-28T02:07:48.853Z,50.30
2023-03-28T02:10:22.805Z,50.40
2023-03-28T02:13:03.634Z,50.40
2023-03-28T02:15:51.466Z,50.40
2023-03-28T02:18:34.123Z,50.30
2023-03-28T02:21:31.148Z,50.30
2023-03-28T02:24:09.658Z,50.20
2023-03-28T02:26:58.331Z,50.30
2023-03-28T02:29:39.065Z,50.30
2023-03-28T02:32:22.301Z,50.20
2023-03-28T02:34:53.579Z,50.20
2023-03-28T02:37:32.526Z,50.20
2023-03-28T02:40:16.031Z,50.20
2023-03-28T02:43:13.188Z,50.20
2023-03-28T02:46:04.695Z,50.20
2023-03-28T02:48:46.983Z,50.20
2023-03-28T02:51:23.555Z,49.90
2023-03-28T02:53:59.009Z,49.90
2023-03-28T02:56:38.521Z,49.90
2023-03-28T02:59:19.720Z,49.90
2023-03-28T03:01:47.860Z,49.90
2023-03-28T03:04:17.575Z,50.00
2023-03-28T03:06:48.563Z,49.90
2023-03-28T03:09:18.651Z,50.00
2023-03-28T03:11:46.612Z,50.00
2023-03-28T03:14:16.106Z,50.00
2023-03-28T03:16:45.201Z,50.00
2023-03-28T03:19:13.673Z,50.00
2023-03-28T03:21:42.216Z,50.00
2023-03-28T03:24:10.553Z,50.10
2023-03-28T03:26:43.489Z,50.10
2023-03-28T03:29:18.431Z,50.10
2023-03-28T03:31:46.813Z,50.10
2023-03-28T03:34:36.731Z,50.10
2023-03-28T03:37:05.669Z,50.10
2023-03-28T03:39:35.877Z,50.10
2023-03-28T03:42:04.833Z,50.10
2023-03-28T03:44:35.902Z,50.20
2023-03-28T03:47:04.157Z,50.20
2023-03-28T03:49:32.199Z,50.20
2023-03-28T03:52:04.708Z,50.20
2023-03-28T03:54:32.732Z,50.30
2023-03-28T03:57:01.523Z,50.30
2023-03-28T03:59:29.855Z,50.30
2023-03-28T04:01:59.122Z,50.40
2023-03-28T04:04:48.619Z,50.50
2023-03-28T04:07:22.906Z,50.50
2023-03-28T04:09:53.943Z,50.50
2023-03-28T04:12:22.059Z,50.50
2023-03-28T04:14:52.395Z,50.50
2023-03-28T04:17:56.944Z,50.50
2023-03-28T04:20:31.713Z,50.40
2023-03-28T04:23:10.346Z,50.50
2023-03-28T04:25:41.871Z,50.50
2023-03-28T04:28:18.067Z,51.00
2023-03-28T04:30:58.654Z,50.60
2023-03-28T04:34:05.507Z,50.60
2023-03-28T04:36:37.757Z,50.60
2023-03-28T04:39:06.429Z,50.60
2023-03-28T04:42:01.924Z,50.60
2023-03-28T04:44:56.262Z,50.60
2023-03-28T04:47:25.607Z,50.60
2023-03-28T04:49:55.123Z,50.60
2023-03-28T04:52:23.324Z,50.60
2023-03-28T04:54:51.834Z,50.60
2023-03-28T04:57:23.134Z,50.60
2023-03-28T04:59:56.048Z,50.60
2023-03-28T05:02:42.917Z,50.60
2023-03-28T05:05:15.791Z,50.60
2023-03-28T05:07:44.165Z,50.60
2023-03-28T05:10:14.089Z,50.60
2023-03-28T05:12:42.790Z,50.70
2023-03-28T05:15:11.691Z,50.60
2023-03-28T05:18:00.851Z,50.70
2023-03-28T05:20:37.130Z,50.60
2023-03-28T05:23:07.458Z,50.60
2023-03-28T05:25:38.741Z,50.60
2023-03-28T05:28:07.448Z,50.60
2023-03-28T05:30:40.919Z,50.60
2023-03-28T05:33:09.185Z,50.70
2023-03-28T05:35:39.193Z,50.70
2023-03-28T05:38:07.759Z,50.70
2023-03-28T05:40:35.803Z,50.80
2023-03-28T05:43:03.787Z,50.80
2023-03-28T05:45:32.355Z,50.80
2023-03-28T05:48:21.503Z,50.70
2023-03-28T05:50:51.262Z,50.70
2023-03-28T05:53:20.205Z,50.70
2023-03-28T05:55:49.559Z,50.80
2023-03-28T05:58:20.258Z,50.90
2023-03-28T06:00:48.396Z,50.90
2023-03-28T06:03:17.700Z,51.00
2023-03-28T06:05:47.879Z,51.00
2023-03-28T06:08:23.004Z,51.00
2023-03-28T06:10:51.442Z,51.10
2023-03-28T06:13:42.198Z,51.10
2023-03-28T06:16:12.332Z,51.10
2023-03-28T06:18:40.882Z,51.00
2023-03-28T06:21:10.439Z,51.10
2023-03-28T06:23:39.860Z,51.10
2023-03-28T06:26:16.354Z,51.10
2023-03-28T06:28:44.324Z,51.10
2023-03-28T06:31:21.914Z,51.10
2023-03-28T06:33:50.418Z,51.20
2023-03-28T06:36:21.028Z,51.20
2023-03-28T06:38:52.256Z,51.20
2023-03-28T06:41:25.026Z,51.20
2023-03-28T06:43:53.077Z,51.20
2023-03-28T06:46:50.601Z,51.30
2023-03-28T06:49:18.744Z,51.20
2023-03-28T06:52:06.109Z,51.20
2023-03-28T06:54:35.973Z,51.20
2023-03-28T06:57:04.144Z,51.20
2023-03-28T06:59:32.610Z,51.30
2023-03-28T07:02:04.486Z,51.30
2023-03-28T07:04:35.883Z,51.30
2023-03-28T07:07:04.377Z,51.40
2023-03-28T07:09:32.572Z,51.50
2023-03-28T07:12:08.725Z,51.40
2023-03-28T07:14:37.036Z,51.50
2023-03-28T07:17:04.922Z,51.60
2023-03-28T07:19:34.033Z,51.50
2023-03-28T07:22:02.162Z,51.30
2023-03-28T07:24:30.773Z,51.20
2023-03-28T07:27:15.604Z,51.10
2023-03-28T07:29:47.706Z,51.10
2023-03-28T07:32:17.109Z,51.10
2023-03-28T07:34:46.774Z,51.20
2023-03-28T07:37:20.867Z,51.30
2023-03-28T07:39:57.268Z,51.30
2023-03-28T07:42:27.861Z,51.30
2023-03-28T07:44:57.636Z,51.30
2023-03-28T07:47:25.535Z,51.40
2023-03-28T07:49:53.776Z,51.40
2023-03-28T07:52:22.625Z,51.40
2023-03-28T07:54:50.832Z,51.40
2023-03-28T07:57:18.802Z,51.50
2023-03-28T08:00:00.330Z,51.40
2023-03-28T08:02:28.841Z,51.30
2023-03-28T08:04:57.452Z,51.30
2023-03-28T08:07:27.136Z,51.30
2023-03-28T08:09:58.436Z,51.10
2023-03-28T08:12:28.820Z,50.90
2023-03-28T08:14:56.974Z,50.90
2023-03-28T08:17:27.641Z,50.90
2023-03-28T08:19:57.442Z,50.90
2023-03-28T08:22:28.264Z,50.80
2023-03-28T08:25:11.298Z,50.80
2023-03-28T08:27:39.819Z,50.70
2023-03-28T08:30:12.246Z,50.70
2023-03-28T08:32:52.104Z,51.10
2023-03-28T08:35:20.124Z,50.90
2023-03-28T08:37:51.285Z,50.90
2023-03-28T08:40:21.536Z,51.60
2023-03-28T08:43:01.390Z,52.90
2023-03-28T08:45:49.097Z,54.20
2023-03-28T08:48:23.887Z,55.20
2023-03-28T08:50:57.656Z,56.60
2023-03-28T08:53:34.180Z,57.30
2023-03-28T08:56:06.502Z,56.60
2023-03-28T08:58:40.866Z,54.40
2023-03-28T09:01:10.943Z,53.70
2023-03-28T09:03:41.514Z,52.50
2023-03-28T09:06:24.942Z,50.70
2023-03-28T09:09:21.315Z,44.10
2023-03-28T09:12:05.673Z,41.80
2023-03-28T09:14:57.468Z,42.90
2023-03-28T09:17:38.299Z,44.00
2023-03-28T09:20:19.449Z,45.00
2023-03-28T09:23:25.650Z,44.60
2023-03-28T09:26:17.343Z,43.50
2023-03-28T09:28:53.230Z,44.80
2023-03-28T09:31:27.830Z,44.40
2023-03-28T09:34:00.429Z,44.90
2023-03-28T09:36:48.981Z,45.00
2023-03-28T09:39:32.669Z,41.90
2023-03-28T09:42:05.840Z,38.50
2023-03-28T09:44:54.886Z,39.90
2023-03-28T09:47:45.047Z,39.70
2023-03-28T09:50:16.293Z,39.70
2023-03-28T09:52:51.214Z,39.60
2023-03-28T09:55:21.958Z,38.10
2023-03-28T09:58:02.507Z,37.80
2023-03-28T10:00:36.364Z,36.20
2023-03-28T10:03:32.297Z,36.90
2023-03-28T10:06:19.586Z,36.80
2023-03-28T10:08:50.382Z,35.90
2023-03-28T10:11:25.429Z,36.10
2023-03-28T10:13:55.652Z,36.20
2023-03-28T10:16:30.070Z,36.10
2023-03-28T10:19:23.183Z,36.10
2023-03-28T10:22:07.440Z,36.40
2023-03-28T10:24:39.857Z,36.40
2023-03-28T10:27:15.011Z,36.50
2023-03-28T10:29:43.621Z,36.10
2023-03-28T10:32:14.536Z,35.00
2023-03-28T10:35:00.273Z,34.80
2023-03-28T10:37:49.432Z,33.80
2023-03-28T10:40:29.983Z,34.60
2023-03-28T10:43:23.277Z,34.00
2023-03-28T10:46:27.809Z,33.70
2023-03-28T10:49:15.403Z,33.40
2023-03-28T10:51:49.018Z,33.20
2023-03-28T10:54:32.556Z,33.20
2023-03-28T10:57:10.313Z,32.90
2023-03-28T10:59:49.314Z,32.80
2023-03-28T11:02:35.103Z,33.00
2023-03-28T11:05:18.025Z,33.50
2023-03-28T11:07:55.046Z,34.20
2023-03-28T11:10:53.632Z,33.90
2023-03-28T11:13:38.479Z,34.40
2023-03-28T11:16:16.866Z,34.80
2023-03-28T11:19:16.117Z,35.20
2023-03-28T11:21:55.606Z,34.60
2023-03-28T11:24:34.479Z,34.50
2023-03-28T11:27:23.076Z,34.00
2023-03-28T11:29:59.629Z,34.30
2023-03-28T11:32:39.597Z,34.60
2023-03-28T11:35:16.980Z,34.90
2023-03-28T11:37:52.401Z,33.20
2023-03-28T11:40:26.104Z,34.60
2023-03-28T11:43:04.630Z,34.60
2023-03-28T11:45:50.041Z,34.50
2023-03-28T11:48:26.148Z,33.90
2023-03-28T11:51:03.905Z,34.10
2023-03-28T11:54:05.273Z,33.90
2023-03-28T11:56:48.197Z,34.60
2023-03-28T11:59:29.240Z,34.60
2023-03-28T12:02:06.671Z,34.40
2023-03-28T12:04:43.554Z,34.30
2023-03-28T12:07:17.467Z,34.50
2023-03-28T12:09:58.894Z,34.60
2023-03-28T12:12:30.922Z,33.60
2023-03-28T12:15:01.943Z,33.70
2023-03-28T12:17:58.523Z,33.30
2023-03-28T12:20:32.960Z,31.20
2023-03-28T12:23:09.177Z,31.30
2023-03-28T12:26:22.821Z,31.50
2023-03-28T12:28:54.269Z,31.00
2023-03-28T12:31:31.633Z,30.40
2023-03-28T12:34:18.376Z,30.90
2023-03-28T12:37:17.569Z,30.70
2023-03-28T12:39:52.385Z,28.60
2023-03-28T12:42:28.667Z,29.30
2023-03-28T12:45:01.971Z,29.70
2023-03-28T12:47:35.984Z,29.40
2023-03-28T12:50:11.420Z,29.60
2023-03-28T12:52:42.231Z,29.30
2023-03-28T12:55:42.469Z,29.10
2023-03-28T12:58:21.909Z,29.00
2023-03-28T13:01:03.642Z,29.20
2023-03-28T13:03:47.661Z,29.30
2023-03-28T13:06:28.934Z,28.90
2023-03-28T13:09:21.728Z,29.30
2023-03-28T13:11:56.963Z,28.40
2023-03-28T13:14:36.439Z,29.60
2023-03-28T13:17:18.387Z,29.40
2023-03-28T13:19:51.760Z,29.20
2023-03-28T13:22:29.613Z,29.20
2023-03-28T13:25:23.270Z,27.80
2023-03-28T13:27:52.731Z,28.50
2023-03-28T13:30:26.312Z,29.10
2023-03-28T13:32:56.465Z,28.70
2023-03-28T13:35:41.049Z,29.50
2023-03-28T13:38:34.176Z,29.00
2023-03-28T13:41:06.621Z,29.00
2023-03-28T13:43:44.813Z,29.70
2023-03-28T13:46:16.365Z,29.10
2023-03-28T13:48:50.642Z,27.80
2023-03-28T13:51:22.312Z,28.60
2023-03-28T13:53:51.686Z,28.60
2023-03-28T13:56:25.123Z,29.00
2023-03-28T13:58:55.454Z,29.20
2023-03-28T14:01:26.034Z,28.90
2023-03-28T14:03:55.875Z,28.70
2023-03-28T14:06:26.260Z,28.50
2023-03-28T14:08:57.800Z,28.20
2023-03-28T14:11:30.505Z,28.00
2023-03-28T14:14:07.314Z,28.10
2023-03-28T14:16:37.559Z,28.10
2023-03-28T14:19:06.720Z,28.30
2023-03-28T14:21:35.869Z,28.40
2023-03-28T14:24:07.420Z,28.40
2023-03-28T14:26:36.882Z,27.90
2023-03-28T14:29:08.447Z,27.70
2023-03-28T14:31:39.258Z,27.80
2023-03-28T14:34:24.198Z,28.10
2023-03-28T14:36:59.262Z,28.00
2023-03-28T14:39:30.335Z,28.20
2023-03-28T14:42:01.444Z,28.60
2023-03-28T14:44:31.342Z,28.50
2023-03-28T14:47:00.936Z,28.20
2023-03-28T14:49:29.828Z,28.40
2023-03-28T14:51:59.922Z,28.00
2023-03-28T14:54:32.880Z,27.70
2023-03-28T14:57:01.595Z,27.50
2023-03-28T14:59:38.244Z,28.00
2023-03-28T15:02:07.544Z,27.50
2023-03-28T15:04:37.174Z,28.30
2023-03-28T15:07:09.107Z,28.70
2023-03-28T15:09:38.480Z,28.30
2023-03-28T15:12:09.629Z,28.60
2023-03-28T15:14:42.523Z,28.90
2023-03-28T15:17:18.825Z,28.30
2023-03-28T15:19:51.150Z,28.50
2023-03-28T15:22:24.737Z,28.40
2023-03-28T15:24:55.583Z,28.40
2023-03-28T15:27:28.013Z,28.30
2023-03-28T15:29:56.704Z,28.20
2023-03-28T15:32:27.520Z,28.30
2023-03-28T15:35:00.685Z,28.30
2023-03-28T15:37:28.806Z,28.20
2023-03-28T15:40:13.299Z,28.20
2023-03-28T15:42:41.744Z,28.00
2023-03-28T15:45:23.451Z,27.70
2023-03-28T15:47:55.040Z,27.90
2023-03-28T15:50:27.791Z,28.40
2023-03-28T15:53:00.951Z,28.00
2023-03-28T15:55:32.201Z,28.10
2023-03-28T15:58:00.983Z,28.00
2023-03-28T16:00:47.427Z,28.30
2023-03-28T16:03:39.798Z,28.20
2023-03-28T16:06:26.596Z,28.30
2023-03-28T16:09:15.055Z,28.30
2023-03-28T16:11:45.719Z,28.20
2023-03-28T16:14:47.835Z,28.30
2023-03-28T16:17:41.832Z,28.00
2023-03-28T16:20:20.861Z,28.20
2023-03-28T16:22:50.643Z,28.40
2023-03-28T16:25:19.573Z,28.30
2023-03-28T16:27:49.045Z,28.50
2023-03-28T16:30:20.679Z,28.60
2023-03-28T16:32:48.810Z,28.70
2023-03-28T16:35:17.156Z,28.80
2023-03-28T16:37:45.928Z,28.80
2023-03-28T16:40:14.306Z,29.00
2023-03-28T16:42:42.778Z,29.00
2023-03-28T16:45:13.720Z,29.10
2023-03-28T16:47:42.573Z,29.10
2023-03-28T16:50:11.192Z,29.10
2023-03-28T16:52:40.323Z,29.20
2023-03-28T16:55:10.296Z,29.30
2023-03-28T16:57:38.892Z,29.30
2023-03-28T17:00:09.581Z,29.40
2023-03-28T17:02:39.442Z,29.60
2023-03-28T17:05:08.498Z,29.60
2023-03-28T17:07:37.150Z,29.60
2023-03-28T17:10:05.562Z,29.70
2023-03-28T17:12:34.172Z,29.90
2023-03-28T17:15:02.408Z,30.00
2023-03-28T17:17:30.353Z,30.10
2023-03-28T17:20:00.588Z,30.20
2023-03-28T17:22:28.601Z,30.10
2023-03-28T17:24:57.326Z,30.00
2023-03-28T17:27:25.526Z,30.00
2023-03-28T17:29:53.444Z,30.00
2023-03-28T17:32:22.097Z,30.00
2023-03-28T17:34:50.268Z,30.10
2023-03-28T17:37:20.461Z,30.10
2023-03-28T17:39:48.541Z,30.30
2023-03-28T17:42:17.195Z,30.30
2023-03-28T17:44:45.498Z,30.30
2023-03-28T17:47:13.518Z,30.50
2023-03-28T17:49:41.667Z,30.80
2023-03-28T17:52:11.140Z,30.90
2023-03-28T17:54:41.166Z,30.90
2023-03-28T17:57:09.648Z,30.90
2023-03-28T17:59:37.583Z,31.00
2023-03-28T18:02:05.807Z,31.10
2023-03-28T18:04:34.023Z,31.10
2023-03-28T18:07:01.914Z,31.10
2023-03-28T18:09:30.116Z,31.20
2023-03-28T18:11:59.623Z,31.40
2023-03-28T18:14:27.545Z,31.60
2023-03-28T18:16:56.473Z,31.70
2023-03-28T18:19:24.649Z,31.70
2023-03-28T18:21:52.780Z,31.70
2023-03-28T18:24:21.290Z,31.90
2023-03-28T18:26:49.548Z,31.90
2023-03-28T18:29:18.905Z,32.00
2023-03-28T18:31:47.465Z,32.00
2023-03-28T18:34:15.564Z,32.00
2023-03-28T18:36:44.035Z,32.10
2023-03-28T18:39:12.501Z,32.10
2023-03-28T18:41:40.441Z,32.10
2023-03-28T18:44:08.986Z,32.00
2023-03-28T18:46:38.737Z,31.90
2023-03-28T18:49:07.339Z,32.00
2023-03-28T18:51:36.513Z,32.10
2023-03-28T18:54:04.782Z,32.00
2023-03-28T18:56:32.961Z,32.10
2023-03-28T18:59:02.319Z,32.20
2023-03-28T19:01:30.542Z,32.30
2023-03-28T19:04:00.115Z,32.60
2023-03-28T19:06:28.298Z,32.70
2023-03-28T19:08:56.422Z,32.70
2023-03-28T19:11:24.463Z,32.80
2023-03-28T19:13:52.405Z,32.90
2023-03-28T19:16:20.559Z,33.10
2023-03-28T19:18:49.068Z,33.20
2023-03-28T19:21:18.463Z,33.40
2023-03-28T19:23:48.581Z,33.40
2023-03-28T19:26:18.352Z,33.30
2023-03-28T19:28:47.162Z,33.30
2023-03-28T19:31:15.433Z,33.20
2023-03-28T19:33:44.743Z,33.10
2023-03-28T19:36:13.192Z,33.10
2023-03-28T19:38:42.460Z,33.20
2023-03-28T19:41:18.285Z,33.10
2023-03-28T19:43:47.924Z,33.30
2023-03-28T19:46:20.797Z,33.20
2023-03-28T19:48:50.615Z,33.30
2023-03-28T19:51:18.514Z,33.30
2023-03-28T19:53:48.373Z,33.50
2023-03-28T19:56:18.828Z,33.40
2023-03-28T19:58:47.448Z,33.40
2023-03-28T20:01:16.530Z,33.50
2023-03-28T20:03:44.853Z,33.50
2023-03-28T20:06:13.998Z,33.70
2023-03-28T20:08:42.662Z,33.90
2023-03-28T20:11:13.841Z,34.50
2023-03-28T20:13:42.149Z,34.50
2023-03-28T20:16:11.527Z,35.10
2023-03-28T20:18:39.891Z,34.90
2023-03-28T20:21:09.842Z,35.30
2023-03-28T20:23:38.451Z,36.40
2023-03-28T20:26:16.841Z,36.80
2023-03-28T20:28:47.069Z,36.60
2023-03-28T20:31:15.049Z,36.30
2023-03-28T20:33:43.251Z,36.30
2023-03-28T20:36:11.336Z,37.80
2023-03-28T20:38:39.464Z,37.30
2023-03-28T20:41:11.019Z,38.60
2023-03-28T20:43:47.535Z,38.50
2023-03-28T20:46:18.908Z,37.90
2023-03-28T20:48:48.217Z,37.90
2023-03-28T20:51:17.527Z,38.10
2023-03-28T20:53:49.556Z,38.50
2023-03-28T20:56:18.860Z,38.80
2023-03-28T20:58:50.981Z,38.70
2023-03-28T21:01:26.459Z,38.80
2023-03-28T21:03:58.094Z,39.00
2023-03-28T21:06:29.298Z,39.50
2023-03-28T21:09:00.441Z,40.70
2023-03-28T21:11:30.058Z,39.80
2023-03-28T21:14:01.282Z,39.60
2023-03-28T21:16:30.396Z,39.70
2023-03-28T21:18:58.747Z,39.90
2023-03-28T21:21:29.680Z,40.00
2023-03-28T21:23:58.248Z,40.00
2023-03-28T21:26:26.900Z,40.10
2023-03-28T21:28:54.789Z,40.40
2023-03-28T21:31:29.230Z,40.60
2023-03-28T21:33:58.653Z,40.70
2023-03-28T21:36:28.084Z,40.60
2023-03-28T21:38:56.376Z,40.80
2023-03-28T21:41:24.606Z,40.90
2023-03-28T21:43:53.790Z,41.10
2023-03-28T21:46:22.489Z,41.30
2023-03-28T21:48:52.106Z,41.50
2023-03-28T21:51:20.675Z,42.10
2023-03-28T21:53:48.761Z,41.60
2023-03-28T21:56:16.894Z,41.30
2023-03-28T21:58:45.465Z,41.50
2023-03-28T22:01:15.132Z,41.50
2023-03-28T22:03:44.356Z,41.60
2023-03-28T22:06:14.801Z,41.60
2023-03-28T22:08:45.020Z,41.70
2023-03-28T22:11:15.431Z,41.70
2023-03-28T22:13:44.837Z,41.90
2023-03-28T22:16:14.086Z,41.90
2023-03-28T22:18:50.407Z,42.00
2023-03-28T22:21:19.812Z,42.10
2023-03-28T22:23:48.247Z,42.00
2023-03-28T22:26:16.394Z,42.00
2023-03-28T22:28:44.641Z,42.10
2023-03-28T22:31:13.360Z,42.00
2023-03-28T22:33:41.321Z,42.10
2023-03-28T22:36:10.878Z,42.30
2023-03-28T22:38:40.208Z,42.50
2023-03-28T22:41:08.286Z,42.70
2023-03-28T22:43:37.457Z,42.60
2023-03-28T22:46:06.514Z,42.70
2023-03-28T22:48:38.066Z,42.80
2023-03-28T22:51:11.537Z,43.00
2023-03-28T22:53:41.509Z,42.90
2023-03-28T22:56:10.223Z,43.00
2023-03-28T22:58:38.185Z,43.10
2023-03-28T23:01:06.903Z,43.20
2023-03-28T23:03:35.051Z,43.40
2023-03-28T23:06:05.946Z,43.30
2023-03-28T23:08:34.998Z,43.40
2023-03-28T23:11:04.596Z,43.30
2023-03-28T23:13:32.784Z,43.50
2023-03-28T23:16:01.437Z,43.40
2023-03-28T23:18:30.133Z,43.50
2023-03-28T23:20:58.308Z,43.60
2023-03-28T23:23:27.301Z,43.60
2023-03-28T23:25:55.868Z,43.70
2023-03-28T23:28:25.613Z,43.80
2023-03-28T23:30:54.163Z,43.90
2023-03-28T23:33:22.046Z,43.90
2023-03-28T23:35:50.094Z,43.90
2023-03-28T23:38:18.277Z,44.00
2023-03-28T23:40:46.553Z,43.90
2023-03-28T23:43:14.560Z,44.10
2023-03-28T23:45:44.845Z,44.20
2023-03-28T23:48:13.080Z,44.30
2023-03-28T23:50:41.565Z,44.30
2023-03-28T23:53:09.685Z,44.50
2023-03-28T23:55:37.656Z,44.30
2023-03-28T23:58:05.715Z,44.20
